createdAt,value
2022-12-12T00:00:39.721Z,100277.41
2022-12-12T00:03:06.332Z,100273.94
2022-12-12T00:05:32.885Z,100271.56
2022-12-12T00:07:59.444Z,100267.06
2022-12-12T00:10:26.062Z,100269.69
2022-12-12T00:12:52.691Z,100269.34
2022-12-12T00:15:19.226Z,100262.59
2022-12-12T00:17:45.718Z,100249.69
2022-12-12T00:20:12.247Z,100246.28
2022-12-12T00:22:38.771Z,100233.72
2022-12-12T00:25:05.631Z,100221.78
2022-12-12T00:27:33.450Z,100230.22
2022-12-12T00:29:59.962Z,100238.81
2022-12-12T00:32:26.691Z,100245.72
2022-12-12T00:34:53.348Z,100252.91
2022-12-12T00:37:19.766Z,100260.00
2022-12-12T00:39:46.397Z,100258.53
2022-12-12T00:42:13.026Z,100256.97
2022-12-12T00:44:39.897Z,100262.25
2022-12-12T00:47:06.552Z,100255.72
2022-12-12T00:49:33.253Z,100247.50
2022-12-12T00:51:59.711Z,100245.94
2022-12-12T00:54:26.118Z,100250.28
2022-12-12T00:56:52.622Z,100252.16
2022-12-12T00:59:19.785Z,100251.06
2022-12-12T01:01:46.897Z,100250.38
2022-12-12T01:04:13.610Z,100255.53
2022-12-12T01:06:40.295Z,100256.16
2022-12-12T01:09:06.755Z,100260.72
2022-12-12T01:11:33.236Z,100260.13
2022-12-12T01:13:59.729Z,100261.31
2022-12-12T01:16:26.260Z,100263.44
2022-12-12T01:18:52.887Z,100265.28
2022-12-12T01:21:20.569Z,100262.50
2022-12-12T01:23:47.892Z,100271.91
2022-12-12T01:26:18.068Z,100263.34
2022-12-12T01:28:45.607Z,100273.09
2022-12-12T01:31:12.600Z,100270.63
2022-12-12T01:33:39.883Z,100263.75
2022-12-12T01:36:07.354Z,100268.06
2022-12-12T01:38:33.860Z,100267.22
2022-12-12T01:41:00.298Z,100269.69
2022-12-12T01:43:28.530Z,100269.84
2022-12-12T01:46:02.538Z,100280.09
2022-12-12T01:48:30.642Z,100284.84
2022-12-12T01:51:01.331Z,100283.34
2022-12-12T01:53:31.439Z,100281.28
2022-12-12T01:55:59.616Z,100284.78
2022-12-12T01:58:26.329Z,100272.91
2022-12-12T02:00:52.848Z,100273.50
2022-12-12T02:03:19.444Z,100272.25
2022-12-12T02:09:35.956Z,100269.34
2022-12-12T02:12:02.468Z,100269.03
2022-12-12T02:14:32.197Z,100256.31
2022-12-12T02:17:26.510Z,100248.19
2022-12-12T02:19:59.005Z,100238.72
2022-12-12T02:22:58.550Z,100239.97
2022-12-12T02:25:46.566Z,100247.84
2022-12-12T02:28:54.356Z,100260.53
2022-12-12T02:31:40.627Z,100262.44
2022-12-12T02:34:36.163Z,100264.34
2022-12-12T02:37:30.307Z,100272.91
2022-12-12T02:40:10.993Z,100268.34
2022-12-12T02:42:46.708Z,100265.56
2022-12-12T02:45:37.703Z,100264.13
2022-12-12T02:48:12.593Z,100272.66
2022-12-12T02:50:40.657Z,100270.88
2022-12-12T02:53:07.193Z,100270.63
2022-12-12T02:55:36.408Z,100276.56
2022-12-12T02:58:05.025Z,100283.25
2022-12-12T03:00:40.783Z,100277.91
2022-12-12T03:03:33.035Z,100275.28
2022-12-12T03:06:21.317Z,100274.75
2022-12-12T03:09:15.814Z,100275.63
2022-12-12T03:12:03.402Z,100263.91
2022-12-12T03:14:58.493Z,100269.00
2022-12-12T03:17:34.209Z,100281.28
2022-12-12T03:20:10.549Z,100284.91
2022-12-12T03:22:45.891Z,100281.34
2022-12-12T03:25:44.942Z,100276.25
2022-12-12T03:28:18.222Z,100275.78
2022-12-12T03:30:50.578Z,100282.72
2022-12-12T03:33:31.099Z,100289.16
2022-12-12T03:36:06.976Z,100283.91
2022-12-12T03:38:38.002Z,100285.84
2022-12-12T03:41:08.752Z,100279.22
2022-12-12T03:43:44.859Z,100278.22
2022-12-12T03:46:19.554Z,100275.81
2022-12-12T03:48:52.079Z,100279.91
2022-12-12T03:51:20.713Z,100281.84
2022-12-12T03:53:52.819Z,100279.44
2022-12-12T03:56:30.460Z,100286.81
2022-12-12T03:59:09.213Z,100291.91
2022-12-12T04:01:57.448Z,100282.97
2022-12-12T04:04:32.700Z,100285.63
2022-12-12T04:07:06.958Z,100280.91
2022-12-12T04:09:52.415Z,100283.00
2022-12-12T04:12:58.545Z,100291.44
2022-12-12T04:15:47.473Z,100290.59
2022-12-12T04:18:29.292Z,100285.19
2022-12-12T04:21:34.483Z,100284.16
2022-12-12T04:24:20.273Z,100277.56
2022-12-12T04:27:00.265Z,100276.63
2022-12-12T04:29:48.705Z,100283.69
2022-12-12T04:32:38.075Z,100280.94
2022-12-12T04:35:31.649Z,100272.34
2022-12-12T04:38:02.194Z,100280.94
2022-12-12T04:40:36.144Z,100276.66
2022-12-12T04:43:33.126Z,100281.09
2022-12-12T04:46:04.765Z,100273.75
2022-12-12T04:48:39.009Z,100282.53
2022-12-12T04:51:07.193Z,100279.50
2022-12-12T04:53:39.401Z,100276.31
2022-12-12T04:56:11.442Z,100274.34
2022-12-12T04:58:39.543Z,100278.00
2022-12-12T05:01:16.467Z,100278.09
2022-12-12T05:03:52.862Z,100277.06
2022-12-12T05:06:26.369Z,100282.75
2022-12-12T05:08:55.263Z,100281.47
2022-12-12T05:11:22.670Z,100283.25
2022-12-12T05:13:49.724Z,100287.50
2022-12-12T05:16:19.191Z,100290.59
2022-12-12T05:18:46.010Z,100286.53
2022-12-12T05:21:13.490Z,100293.28
2022-12-12T05:23:40.078Z,100290.81
2022-12-12T05:26:25.261Z,100290.84
2022-12-12T05:28:51.726Z,100297.34
2022-12-12T05:31:18.556Z,100296.72
2022-12-12T05:33:45.449Z,100298.03
2022-12-12T05:36:12.555Z,100293.50
2022-12-12T05:38:39.534Z,100298.13
2022-12-12T05:41:06.332Z,100298.50
2022-12-12T05:43:33.380Z,100297.44
2022-12-12T05:46:00.465Z,100295.88
2022-12-12T05:48:27.767Z,100294.59
2022-12-12T05:50:54.292Z,100297.72
2022-12-12T05:53:21.013Z,100301.88
2022-12-12T05:55:51.973Z,100300.34
2022-12-12T05:58:19.984Z,100300.78
2022-12-12T06:00:50.925Z,100299.66
2022-12-12T06:03:18.161Z,100300.78
2022-12-12T06:05:44.604Z,100302.47
2022-12-12T06:08:11.170Z,100298.84
2022-12-12T06:10:37.744Z,100301.34
2022-12-12T06:13:04.254Z,100303.56
2022-12-12T06:15:30.879Z,100306.31
2022-12-12T06:17:58.509Z,100302.38
2022-12-12T06:20:25.195Z,100308.38
2022-12-12T06:22:53.836Z,100310.06
2022-12-12T06:25:21.233Z,100314.53
2022-12-12T06:27:47.675Z,100310.47
2022-12-12T06:30:14.525Z,100319.34
2022-12-12T06:32:41.363Z,100311.47
2022-12-12T06:35:08.394Z,100312.25
2022-12-12T06:37:35.216Z,100328.78
2022-12-12T06:40:01.872Z,100327.31
2022-12-12T06:42:28.383Z,100330.06
2022-12-12T06:44:54.851Z,100325.75
2022-12-12T06:47:21.295Z,100331.63
2022-12-12T06:49:48.236Z,100329.25
2022-12-12T06:52:14.743Z,100333.84
2022-12-12T06:54:41.386Z,100332.25
2022-12-12T06:57:07.836Z,100331.16
2022-12-12T06:59:34.281Z,100336.34
2022-12-12T07:02:03.973Z,100341.09
2022-12-12T07:04:30.508Z,100337.06
2022-12-12T07:06:57.008Z,100343.44
2022-12-12T07:09:23.488Z,100336.91
2022-12-12T07:11:49.904Z,100346.72
2022-12-12T07:14:17.357Z,100343.88
2022-12-12T07:16:43.853Z,100346.06
2022-12-12T07:19:10.279Z,100347.34
2022-12-12T07:21:37.027Z,100346.06
2022-12-12T07:24:03.612Z,100355.13
2022-12-12T07:26:30.088Z,100358.25
2022-12-12T07:28:56.680Z,100359.03
2022-12-12T07:31:26.589Z,100360.03
2022-12-12T07:33:54.536Z,100368.09
2022-12-12T07:36:21.067Z,100368.09
2022-12-12T07:38:47.931Z,100362.47
2022-12-12T07:41:17.813Z,100363.50
2022-12-12T07:43:46.060Z,100369.47
2022-12-12T07:46:18.312Z,100365.19
2022-12-12T07:48:44.973Z,100372.50
2022-12-12T07:51:12.380Z,100379.88
2022-12-12T07:53:39.385Z,100375.88
2022-12-12T07:56:07.472Z,100376.06
2022-12-12T07:58:34.729Z,100383.53
2022-12-12T08:01:01.490Z,100385.97
2022-12-12T08:03:27.986Z,100379.38
2022-12-12T08:05:54.592Z,100388.03
2022-12-12T08:08:21.540Z,100387.41
2022-12-12T08:10:48.247Z,100390.28
2022-12-12T08:13:14.862Z,100393.84
2022-12-12T08:15:42.773Z,100394.19
2022-12-12T08:18:09.229Z,100402.66
2022-12-12T08:20:39.455Z,100403.53
2022-12-12T08:23:06.109Z,100405.88
2022-12-12T08:25:33.416Z,100414.03
2022-12-12T08:27:59.945Z,100409.09
2022-12-12T08:30:26.427Z,100419.59
2022-12-12T08:32:53.112Z,100413.25
2022-12-12T08:35:19.673Z,100413.00
2022-12-12T08:37:46.230Z,100404.69
2022-12-12T08:40:12.854Z,100424.69
2022-12-12T08:42:39.658Z,100420.28
2022-12-12T08:45:06.661Z,100416.22
2022-12-12T08:47:33.334Z,100422.13
2022-12-12T08:49:59.849Z,100425.84
2022-12-12T08:52:26.282Z,100422.63
2022-12-12T08:54:52.829Z,100434.13
2022-12-12T08:57:24.248Z,100442.16
2022-12-12T08:59:52.344Z,100436.72
2022-12-12T09:02:19.073Z,100441.50
2022-12-12T09:04:45.676Z,100444.44
2022-12-12T09:07:12.339Z,100444.50
2022-12-12T09:09:39.105Z,100446.94
2022-12-12T09:12:05.801Z,100453.31
2022-12-12T09:14:33.135Z,100457.03
2022-12-12T09:16:59.576Z,100452.59
2022-12-12T09:19:25.993Z,100465.03
2022-12-12T09:21:52.588Z,100458.97
2022-12-12T09:24:19.637Z,100464.34
2022-12-12T09:26:46.125Z,100462.16
2022-12-12T09:29:13.043Z,100463.75
2022-12-12T09:31:39.588Z,100463.78
2022-12-12T09:34:06.241Z,100465.53
2022-12-12T09:36:32.818Z,100456.69
2022-12-12T09:38:59.307Z,100459.66
2022-12-12T09:41:27.261Z,100464.59
2022-12-12T09:43:59.505Z,100462.78
2022-12-12T09:46:34.808Z,100463.22
2022-12-12T09:49:38.420Z,100464.19
2022-12-12T09:52:14.164Z,100465.31
2022-12-12T09:54:40.639Z,100456.25
2022-12-12T09:57:20.916Z,100462.44
2022-12-12T09:59:56.137Z,100451.66
2022-12-12T10:02:48.415Z,100457.56
2022-12-12T10:05:27.048Z,100460.91
2022-12-12T10:08:02.352Z,100459.69
2022-12-12T10:10:34.650Z,100457.03
2022-12-12T10:13:04.162Z,100455.50
2022-12-12T10:15:41.755Z,100455.38
2022-12-12T10:18:16.264Z,100459.06
2022-12-12T10:20:51.268Z,100463.66
2022-12-12T10:23:26.815Z,100459.97
2022-12-12T10:26:08.628Z,100460.56
2022-12-12T10:28:35.609Z,100466.94
2022-12-12T10:31:23.767Z,100469.09
2022-12-12T10:34:15.050Z,100469.13
2022-12-12T10:37:10.118Z,100476.72
2022-12-12T10:39:55.408Z,100476.03
2022-12-12T10:42:41.375Z,100473.81
2022-12-12T10:45:32.657Z,100467.72
2022-12-12T10:47:59.509Z,100462.78
2022-12-12T10:50:33.763Z,100460.78
2022-12-12T10:53:03.260Z,100467.00
2022-12-12T10:55:55.444Z,100469.59
2022-12-12T10:58:38.855Z,100470.25
2022-12-12T11:01:38.516Z,100468.06
2022-12-12T11:04:08.939Z,100467.72
2022-12-12T11:06:48.618Z,100460.47
2022-12-12T11:09:25.718Z,100467.13
2022-12-12T11:12:12.323Z,100466.41
2022-12-12T11:14:45.060Z,100467.13
2022-12-12T11:17:29.479Z,100476.34
2022-12-12T11:20:01.495Z,100467.91
2022-12-12T11:22:35.657Z,100471.81
2022-12-12T11:25:02.606Z,100467.16
2022-12-12T11:27:32.953Z,100463.72
2022-12-12T11:30:04.117Z,100464.75
2022-12-12T11:32:41.350Z,100467.69
2022-12-12T11:35:26.663Z,100458.94
2022-12-12T11:37:58.107Z,100463.66
2022-12-12T11:40:30.971Z,100467.03
2022-12-12T11:43:22.455Z,100460.53
2022-12-12T11:46:26.338Z,100466.03
2022-12-12T11:48:53.063Z,100464.28
2022-12-12T11:51:44.625Z,100464.38
2022-12-12T11:54:20.318Z,100475.31
2022-12-12T11:57:03.306Z,100471.47
2022-12-12T11:59:54.980Z,100468.00
2022-12-12T12:02:59.309Z,100465.41
2022-12-12T12:05:25.961Z,100476.63
2022-12-12T12:08:08.179Z,100479.50
2022-12-12T12:10:45.764Z,100489.31
2022-12-12T12:13:30.494Z,100482.34
2022-12-12T12:16:35.712Z,100485.66
2022-12-12T12:19:27.343Z,100491.84
2022-12-12T12:22:14.939Z,100488.97
2022-12-12T12:24:53.808Z,100488.44
2022-12-12T12:27:42.864Z,100481.50
2022-12-12T12:30:21.497Z,100478.38
2022-12-12T12:33:14.592Z,100479.31
2022-12-12T12:36:09.302Z,100476.41
2022-12-12T12:39:10.723Z,100483.19
2022-12-12T12:41:37.098Z,100479.47
2022-12-12T12:44:21.385Z,100481.50
2022-12-12T12:47:25.863Z,100476.59
2022-12-12T12:50:17.677Z,100478.03
2022-12-12T12:53:00.202Z,100477.03
2022-12-12T12:55:35.621Z,100479.47
2022-12-12T12:58:06.179Z,100474.19
2022-12-12T13:00:39.102Z,100479.63
2022-12-12T13:03:05.707Z,100473.28
2022-12-12T13:05:43.975Z,100478.03
2022-12-12T13:08:29.497Z,100472.72
2022-12-12T13:11:03.345Z,100473.69
2022-12-12T13:13:38.784Z,100467.75
2022-12-12T13:16:10.829Z,100465.13
2022-12-12T13:18:46.787Z,100474.69
2022-12-12T13:21:37.759Z,100468.41
2022-12-12T13:24:21.957Z,100472.84
2022-12-12T13:27:12.376Z,100479.28
2022-12-12T13:30:05.182Z,100486.59
2022-12-12T13:32:37.761Z,100476.41
2022-12-12T13:35:13.063Z,100485.22
2022-12-12T13:37:50.214Z,100493.38
2022-12-12T13:40:25.495Z,100481.84
2022-12-12T13:43:25.558Z,100489.59
2022-12-12T13:45:55.697Z,100484.75
2022-12-12T13:48:28.479Z,100495.31
2022-12-12T13:51:34.864Z,100492.06
2022-12-12T13:54:14.947Z,100498.63
2022-12-12T13:56:43.100Z,100493.00
2022-12-12T13:59:27.297Z,100498.25
2022-12-12T14:02:01.200Z,100496.38
2022-12-12T14:04:31.973Z,100503.09
2022-12-12T14:07:04.733Z,100504.00
2022-12-12T14:09:50.640Z,100506.09
2022-12-12T14:12:32.702Z,100498.47
2022-12-12T14:15:09.273Z,100504.78
2022-12-12T14:17:42.713Z,100504.66
2022-12-12T14:20:49.152Z,100508.44
2022-12-12T14:23:27.044Z,100508.16
2022-12-12T14:25:54.173Z,100514.78
2022-12-12T14:28:32.924Z,100512.25
2022-12-12T14:31:14.217Z,100510.28
2022-12-12T14:34:02.220Z,100517.16
2022-12-12T14:37:22.454Z,100520.94
2022-12-12T14:40:11.146Z,100516.09
2022-12-12T14:43:19.877Z,100520.50
2022-12-12T14:45:51.589Z,100511.56
2022-12-12T14:48:29.201Z,100511.06
2022-12-12T14:51:16.097Z,100519.22
2022-12-12T14:53:48.140Z,100525.75
2022-12-12T14:56:19.528Z,100525.94
2022-12-12T14:59:00.070Z,100531.34
2022-12-12T15:01:45.537Z,100542.22
2022-12-12T15:04:32.570Z,100543.56
2022-12-12T15:07:06.574Z,100545.22
2022-12-12T15:09:38.955Z,100544.06
2022-12-12T15:12:11.709Z,100534.19
2022-12-12T15:14:56.237Z,100543.53
2022-12-12T15:17:32.935Z,100548.50
2022-12-12T15:20:04.224Z,100542.59
2022-12-12T15:22:59.091Z,100545.03
2022-12-12T15:25:29.400Z,100547.16
2022-12-12T15:27:59.653Z,100543.59
2022-12-12T15:30:37.537Z,100545.25
2022-12-12T15:33:08.205Z,100541.53
2022-12-12T15:35:40.855Z,100546.63
2022-12-12T15:38:24.306Z,100545.53
2022-12-12T15:40:59.838Z,100548.00
2022-12-12T15:43:29.165Z,100545.31
2022-12-12T15:46:03.464Z,100538.03
2022-12-12T15:48:30.046Z,100544.66
2022-12-12T15:51:03.264Z,100548.34
2022-12-12T15:53:38.692Z,100545.09
2022-12-12T15:56:08.103Z,100541.97
2022-12-12T15:58:44.542Z,100545.53
2022-12-12T16:01:21.356Z,100544.06
2022-12-12T16:03:59.128Z,100547.69
2022-12-12T16:06:40.991Z,100554.59
2022-12-12T16:09:07.953Z,100549.41
2022-12-12T16:11:41.714Z,100551.81
2022-12-12T16:14:32.502Z,100553.59
2022-12-12T16:17:22.332Z,100554.19
2022-12-12T16:20:02.450Z,100563.16
2022-12-12T16:22:35.206Z,100562.75
2022-12-12T16:25:27.693Z,100552.56
2022-12-12T16:27:54.530Z,100561.13
2022-12-12T16:30:21.528Z,100566.31
2022-12-12T16:32:48.334Z,100568.56
2022-12-12T16:35:22.774Z,100581.97
2022-12-12T16:37:53.822Z,100575.50
2022-12-12T16:40:21.451Z,100582.53
2022-12-12T16:43:15.903Z,100575.88
2022-12-12T16:45:46.586Z,100572.47
2022-12-12T16:48:21.299Z,100575.19
2022-12-12T16:50:54.408Z,100577.25
2022-12-12T16:53:21.127Z,100577.81
2022-12-12T16:56:02.465Z,100582.47
2022-12-12T16:58:29.356Z,100580.53
2022-12-12T17:00:56.095Z,100577.66
2022-12-12T17:03:26.187Z,100584.00
2022-12-12T17:05:53.348Z,100577.81
2022-12-12T17:08:20.238Z,100578.47
2022-12-12T17:10:49.007Z,100582.53
2022-12-12T17:13:18.576Z,100581.06
2022-12-12T17:15:48.826Z,100578.38
2022-12-12T17:18:15.814Z,100579.50
2022-12-12T17:20:43.019Z,100592.63
2022-12-12T17:23:32.688Z,100588.97
2022-12-12T17:26:04.628Z,100602.44
2022-12-12T17:28:36.290Z,100603.28
2022-12-12T17:31:06.856Z,100606.78
2022-12-12T17:33:33.445Z,100602.19
2022-12-12T17:36:11.564Z,100598.03
2022-12-12T17:38:38.285Z,100601.13
2022-12-12T17:41:09.068Z,100593.72
2022-12-12T17:43:37.284Z,100588.03
2022-12-12T17:46:06.399Z,100586.47
2022-12-12T17:48:35.335Z,100587.94
2022-12-12T17:51:05.227Z,100591.56
2022-12-12T17:53:38.073Z,100587.22
2022-12-12T17:56:18.262Z,100586.53
2022-12-12T17:58:46.525Z,100585.53
2022-12-12T18:01:28.278Z,100597.81
2022-12-12T18:04:04.087Z,100594.56
2022-12-12T18:06:35.986Z,100589.41
2022-12-12T18:09:09.153Z,100591.88
2022-12-12T18:11:38.957Z,100582.97
2022-12-12T18:14:07.542Z,100589.16
2022-12-12T18:16:36.450Z,100595.41
2022-12-12T18:19:03.713Z,100595.94
2022-12-12T18:24:22.704Z,100604.34
2022-12-12T18:26:53.834Z,100606.09
2022-12-12T18:29:20.596Z,100609.16
2022-12-12T18:31:47.851Z,100603.63
2022-12-12T18:34:17.956Z,100597.41
2022-12-12T18:36:44.765Z,100595.91
2022-12-12T18:39:11.888Z,100598.88
2022-12-12T18:41:40.030Z,100594.41
2022-12-12T18:44:14.340Z,100594.50
2022-12-12T18:46:43.489Z,100606.66
2022-12-12T18:49:13.886Z,100602.81
2022-12-12T18:51:42.434Z,100602.44
2022-12-12T18:54:14.246Z,100612.47
2022-12-12T18:56:42.731Z,100613.88
2022-12-12T18:59:09.307Z,100615.03
2022-12-12T19:01:36.510Z,100617.31
2022-12-12T19:04:10.718Z,100613.16
2022-12-12T19:06:40.229Z,100621.44
2022-12-12T19:09:17.825Z,100627.66
2022-12-12T19:11:45.065Z,100626.22
2022-12-12T19:14:13.049Z,100629.84
2022-12-12T19:16:39.758Z,100626.03
2022-12-12T19:19:07.293Z,100628.53
2022-12-12T19:21:34.897Z,100626.31
2022-12-12T19:24:02.974Z,100623.72
2022-12-12T19:26:30.452Z,100624.34
2022-12-12T19:29:05.871Z,100634.88
2022-12-12T19:31:34.450Z,100629.31
2022-12-12T19:34:01.904Z,100616.97
2022-12-12T19:36:28.682Z,100625.81
2022-12-12T19:38:57.719Z,100619.25
2022-12-12T19:41:24.829Z,100624.47
2022-12-12T19:43:52.974Z,100624.00
2022-12-12T19:46:22.547Z,100633.47
2022-12-12T19:48:49.305Z,100640.00
2022-12-12T19:51:20.939Z,100636.69
2022-12-12T19:53:50.061Z,100637.25
2022-12-12T19:56:23.216Z,100636.97
2022-12-12T19:58:50.432Z,100634.72
2022-12-12T20:01:22.989Z,100643.44
2022-12-12T20:03:51.557Z,100641.59
2022-12-12T20:06:18.793Z,100644.13
2022-12-12T20:08:45.961Z,100643.16
2022-12-12T20:11:18.431Z,100638.63
2022-12-12T20:13:52.990Z,100635.81
2022-12-12T20:16:22.651Z,100629.69
2022-12-12T20:18:50.278Z,100635.88
2022-12-12T20:21:43.438Z,100641.28
2022-12-12T20:24:07.643Z,100651.19
2022-12-12T20:26:34.624Z,100638.50
2022-12-12T20:29:01.828Z,100641.53
2022-12-12T20:31:34.895Z,100645.94
2022-12-12T20:34:02.277Z,100640.97
2022-12-12T20:36:31.459Z,100648.84
2022-12-12T20:38:59.568Z,100649.34
2022-12-12T20:41:29.197Z,100646.63
2022-12-12T20:43:57.110Z,100644.84
2022-12-12T20:46:29.852Z,100648.56
2022-12-12T20:48:58.524Z,100652.25
2022-12-12T20:54:21.479Z,100654.75
2022-12-12T20:56:49.449Z,100655.72
2022-12-12T20:59:15.933Z,100647.91
2022-12-12T21:01:42.447Z,100651.47
2022-12-12T21:04:09.525Z,100654.78
2022-12-12T21:06:44.234Z,100656.88
2022-12-12T21:09:13.019Z,100649.38
2022-12-12T21:11:41.512Z,100655.97
2022-12-12T21:14:08.162Z,100655.88
2022-12-12T21:16:37.940Z,100654.72
2022-12-12T21:19:09.223Z,100659.63
2022-12-12T21:21:36.633Z,100660.28
2022-12-12T21:24:04.299Z,100658.56
2022-12-12T21:26:31.826Z,100649.84
2022-12-12T21:29:00.248Z,100648.38
2022-12-12T21:31:29.883Z,100648.84
2022-12-12T21:33:57.533Z,100650.06
2022-12-12T21:36:24.607Z,100653.56
2022-12-12T21:38:52.865Z,100650.44
2022-12-12T21:41:21.309Z,100652.72
2022-12-12T21:43:48.270Z,100649.53
2022-12-12T21:46:17.751Z,100647.56
2022-12-12T21:48:44.262Z,100645.13
2022-12-12T21:51:15.878Z,100652.09
2022-12-12T21:53:43.057Z,100649.81
2022-12-12T21:56:15.053Z,100653.69
2022-12-12T21:58:42.921Z,100658.13
2022-12-12T22:01:12.556Z,100651.22
2022-12-12T22:03:39.413Z,100652.31
2022-12-12T22:06:20.670Z,100657.47
2022-12-12T22:08:48.008Z,100652.47
2022-12-12T22:11:23.830Z,100656.47
2022-12-12T22:14:04.307Z,100651.00
2022-12-12T22:16:33.558Z,100650.63
2022-12-12T22:19:06.502Z,100651.22
2022-12-12T22:21:33.715Z,100654.34
2022-12-12T22:24:00.723Z,100652.59
2022-12-12T22:26:33.388Z,100659.63
2022-12-12T22:29:04.575Z,100654.94
2022-12-12T22:31:34.400Z,100652.97
2022-12-12T22:34:04.131Z,100651.19
2022-12-12T22:36:32.705Z,100649.94
2022-12-12T22:38:59.968Z,100648.56
2022-12-12T22:41:28.770Z,100644.53
2022-12-12T22:43:58.590Z,100653.16
2022-12-12T22:46:26.471Z,100652.72
2022-12-12T22:48:54.722Z,100655.59
2022-12-12T22:51:27.145Z,100654.25
2022-12-12T22:53:55.972Z,100651.41
2022-12-12T22:56:22.970Z,100657.25
2022-12-12T22:58:49.687Z,100653.56
2022-12-12T23:01:18.447Z,100653.00
2022-12-12T23:03:46.135Z,100657.16
2022-12-12T23:06:16.981Z,100661.97
2022-12-12T23:08:48.456Z,100657.63
2022-12-12T23:11:16.087Z,100661.41
2022-12-12T23:13:44.286Z,100663.63
2022-12-12T23:16:19.658Z,100672.44
2022-12-12T23:18:47.463Z,100668.56
2022-12-12T23:21:17.323Z,100659.38
2022-12-12T23:23:44.787Z,100665.16
2022-12-12T23:26:13.930Z,100663.94
2022-12-12T23:28:40.781Z,100656.09
2022-12-12T23:31:13.138Z,100652.56
2022-12-12T23:33:40.005Z,100657.56
2022-12-12T23:36:08.674Z,100662.06
2022-12-12T23:38:35.248Z,100661.22
2022-12-12T23:41:06.688Z,100654.91
2022-12-12T23:43:33.075Z,100652.84
2022-12-12T23:46:05.092Z,100655.19
2022-12-12T23:48:32.229Z,100651.41
2022-12-12T23:50:59.453Z,100647.16
2022-12-12T23:53:27.111Z,100653.81
2022-12-12T23:55:53.865Z,100652.19
2022-12-12T23:58:20.373Z,100644.34
